Time;durP1;ratioP1;P1;durP2;ratioP2;P2;SDS_P1;SDS_P2;PMS_P1;PMS_P2;Temp;Humidity;BMP_temperature;BMP_pressure;BME280_temperature;BME280_humidity;BME280_pressure;Samples;Min_cycle;Max_cycle;Signal;HPM_P1;HPM_P2
2023/03/17 00:00:51;;;;;;;11.38;4.80;;;;;;;;;;5018863;28;20037;-68
2023/03/17 00:03:38;;;;;;;8.30;4.13;;;;;;;;;;5023426;28;20477;-71
2023/03/17 00:06:29;;;;;;;8.70;4.80;;;;;;;;;;5010504;28;20205;-78
2023/03/17 00:09:16;;;;;;;15.73;4.05;;;;;;;;;;5016466;28;20031;-71
2023/03/17 00:12:01;;;;;;;8.35;4.60;;;;;;;;;;5030320;28;20022;-69
2023/03/17 00:14:47;;;;;;;10.40;4.75;;;;;;;;;;5031492;28;20052;-69
2023/03/17 00:17:32;;;;;;;9.60;5.13;;;;;;;;;;5011385;28;20025;-69
2023/03/17 00:20:21;;;;;;;8.30;4.00;;;;;;;;;;5014015;28;20420;-70
2023/03/17 00:23:10;;;;;;;8.20;4.23;;;;;;;;;;5008782;28;20031;-79
2023/03/17 00:25:56;;;;;;;14.15;4.88;;;;;;;;;;5024769;28;20034;-78
2023/03/17 00:28:41;;;;;;;6.00;3.47;;;;;;;;;;5029612;28;20464;-80
2023/03/17 00:31:28;;;;;;;9.15;4.60;;;;;;;;;;5011579;28;20204;-80
2023/03/17 00:34:16;;;;;;;6.97;4.25;;;;;;;;;;5010738;28;20053;-80
2023/03/17 00:37:01;;;;;;;7.18;4.10;;;;;;;;;;5031421;28;20213;-79
2023/03/17 00:39:46;;;;;;;14.05;5.32;;;;;;;;;;5026962;28;20416;-79
2023/03/17 00:42:31;;;;;;;7.38;4.18;;;;;;;;;;5017580;28;20045;-78
2023/03/17 00:45:17;;;;;;;10.48;4.22;;;;;;;;;;5019091;28;20186;-71
2023/03/17 00:48:09;;;;;;;8.18;4.03;;;;;;;;;;5024573;28;20044;-72
2023/03/17 00:50:54;;;;;;;9.38;4.82;;;;;;;;;;5021904;28;20026;-71
2023/03/17 00:53:40;;;;;;;7.43;4.45;;;;;;;;;;5010433;28;20097;-73
2023/03/17 00:56:25;;;;;;;9.48;4.47;;;;;;;;;;5012802;28;20032;-73
2023/03/17 00:59:23;;;;;;;7.38;3.78;;;;;;;;;;5023570;28;20040;-72
2023/03/17 01:02:10;;;;;;;9.77;4.30;;;;;;;;;;5009740;28;20067;-73
2023/03/17 01:04:56;;;;;;;8.65;3.88;;;;;;;;;;5008483;28;20473;-80
2023/03/17 01:07:46;;;;;;;8.60;4.15;;;;;;;;;;5016092;28;20049;-79
2023/03/17 01:10:31;;;;;;;7.18;3.42;;;;;;;;;;5022460;28;20132;-79
2023/03/17 01:13:17;;;;;;;11.43;4.47;;;;;;;;;;5022777;28;20035;-79
2023/03/17 01:16:02;;;;;;;8.88;3.60;;;;;;;;;;5031113;28;20071;-79
2023/03/17 01:18:48;;;;;;;8.70;4.05;;;;;;;;;;5013874;28;20418;-79
2023/03/17 01:21:33;;;;;;;6.97;3.58;;;;;;;;;;5024513;28;20091;-80
2023/03/17 01:24:18;;;;;;;6.57;4.10;;;;;;;;;;5025302;28;20079;-79
2023/03/17 01:27:03;;;;;;;7.68;4.68;;;;;;;;;;5017328;28;20672;-80
2023/03/17 01:29:52;;;;;;;7.50;4.15;;;;;;;;;;5010392;28;20032;-80
2023/03/17 01:32:38;;;;;;;7.53;4.03;;;;;;;;;;5014165;28;20496;-81
2023/03/17 01:35:24;;;;;;;7.85;4.10;;;;;;;;;;5023012;28;20875;-80
2023/03/17 01:38:10;;;;;;;8.35;4.43;;;;;;;;;;5014171;28;20033;-73
2023/03/17 01:40:55;;;;;;;7.53;3.95;;;;;;;;;;5012544;28;20033;-70
2023/03/17 01:43:41;;;;;;;6.97;3.90;;;;;;;;;;4994182;28;20037;-69
2023/03/17 01:46:26;;;;;;;8.23;4.55;;;;;;;;;;5031120;28;20481;-71
2023/03/17 01:49:14;;;;;;;8.88;4.70;;;;;;;;;;5026610;28;20025;-70
2023/03/17 01:51:59;;;;;;;8.38;4.05;;;;;;;;;;5021869;28;20113;-71
2023/03/17 01:54:47;;;;;;;7.63;3.78;;;;;;;;;;5002769;28;20103;-70
2023/03/17 01:57:45;;;;;;;9.02;4.63;;;;;;;;;;5018539;28;20037;-77
2023/03/17 02:00:31;;;;;;;5.22;3.30;;;;;;;;;;5018970;28;20021;-79
2023/03/17 02:03:16;;;;;;;8.18;3.53;;;;;;;;;;5030835;28;20045;-78
2023/03/17 02:06:03;;;;;;;7.18;3.55;;;;;;;;;;5014498;28;20511;-78
2023/03/17 02:08:48;;;;;;;7.60;4.00;;;;;;;;;;5016417;28;20052;-79
2023/03/17 02:11:34;;;;;;;7.75;3.83;;;;;;;;;;5027670;28;20489;-79
2023/03/17 02:14:20;;;;;;;9.98;4.15;;;;;;;;;;5018116;28;20038;-66
2023/03/17 02:17:05;;;;;;;8.05;3.88;;;;;;;;;;5007823;28;20030;-69
2023/03/17 02:19:50;;;;;;;8.35;4.03;;;;;;;;;;5024534;28;20045;-70
2023/03/17 02:22:36;;;;;;;7.35;4.38;;;;;;;;;;5024619;28;20033;-69
2023/03/17 02:25:22;;;;;;;9.88;4.10;;;;;;;;;;5029227;28;20071;-68
2023/03/17 02:28:12;;;;;;;13.27;4.65;;;;;;;;;;5011889;28;20048;-70
2023/03/17 02:30:57;;;;;;;8.48;3.75;;;;;;;;;;5015445;28;20546;-71
2023/03/17 02:33:42;;;;;;;7.25;4.35;;;;;;;;;;5028003;28;20065;-80
2023/03/17 02:36:27;;;;;;;7.47;3.50;;;;;;;;;;5022342;28;20550;-80
2023/03/17 02:39:13;;;;;;;7.63;3.67;;;;;;;;;;5031492;28;20033;-79
2023/03/17 02:41:58;;;;;;;7.45;3.58;;;;;;;;;;5012992;28;20040;-79
2023/03/17 02:44:44;;;;;;;7.93;3.97;;;;;;;;;;5018976;28;20049;-78
2023/03/17 02:47:29;;;;;;;6.80;3.33;;;;;;;;;;5034531;28;20041;-79
2023/03/17 02:50:20;;;;;;;5.53;3.30;;;;;;;;;;5026944;28;20018;-78
2023/03/17 02:53:07;;;;;;;8.73;4.22;;;;;;;;;;5012675;28;20060;-79
2023/03/17 02:55:52;;;;;;;7.40;3.92;;;;;;;;;;5018928;28;20480;-79
2023/03/17 02:58:37;;;;;;;8.88;4.20;;;;;;;;;;5025693;28;20026;-81
2023/03/17 03:01:22;;;;;;;6.25;3.33;;;;;;;;;;5023176;28;20025;-80
2023/03/17 03:04:08;;;;;;;10.02;4.05;;;;;;;;;;5002705;28;20416;-78
2023/03/17 03:06:53;;;;;;;6.57;3.42;;;;;;;;;;5007841;28;20029;-79
2023/03/17 03:09:40;;;;;;;6.45;3.70;;;;;;;;;;5027179;28;20049;-71
2023/03/17 03:12:26;;;;;;;6.32;3.65;;;;;;;;;;5040009;28;20069;-79
2023/03/17 03:15:11;;;;;;;12.27;4.00;;;;;;;;;;5023839;28;20124;-79
2023/03/17 03:17:56;;;;;;;5.93;3.53;;;;;;;;;;5011154;28;20073;-79
2023/03/17 03:20:43;;;;;;;7.00;3.50;;;;;;;;;;5017505;28;20040;-80
2023/03/17 03:23:28;;;;;;;7.18;3.58;;;;;;;;;;5020612;28;20033;-79
2023/03/17 03:26:14;;;;;;;6.72;3.80;;;;;;;;;;5007812;28;20053;-69
2023/03/17 03:28:59;;;;;;;6.55;3.65;;;;;;;;;;5011566;28;20131;-78
2023/03/17 03:31:46;;;;;;;6.57;4.07;;;;;;;;;;5019613;28;20029;-66
2023/03/17 03:34:32;;;;;;;6.03;3.30;;;;;;;;;;5041738;28;20029;-66
2023/03/17 03:37:17;;;;;;;7.07;4.00;;;;;;;;;;5039019;28;20024;-69
2023/03/17 03:40:03;;;;;;;5.57;3.58;;;;;;;;;;5025514;28;20214;-70
2023/03/17 03:42:48;;;;;;;7.63;3.47;;;;;;;;;;5014976;28;20049;-69
2023/03/17 03:45:33;;;;;;;6.18;2.95;;;;;;;;;;5016368;28;20091;-73
2023/03/17 03:48:19;;;;;;;8.80;4.60;;;;;;;;;;5029534;28;20108;-72
2023/03/17 03:51:04;;;;;;;6.65;3.90;;;;;;;;;;5027253;28;20503;-73
2023/03/17 03:53:49;;;;;;;6.45;3.08;;;;;;;;;;5018425;28;20040;-72
2023/03/17 03:56:35;;;;;;;6.63;3.25;;;;;;;;;;5017580;28;20062;-71
2023/03/17 03:59:20;;;;;;;6.30;3.47;;;;;;;;;;5017643;28;20064;-75
2023/03/17 04:02:06;;;;;;;9.20;3.30;;;;;;;;;;5009671;28;20040;-75
2023/03/17 04:04:52;;;;;;;7.93;3.55;;;;;;;;;;5023135;28;20033;-70
2023/03/17 04:07:38;;;;;;;6.90;3.05;;;;;;;;;;5012206;28;20029;-66
2023/03/17 04:10:24;;;;;;;5.95;3.28;;;;;;;;;;5027013;28;20056;-66
2023/03/17 04:13:09;;;;;;;5.88;3.00;;;;;;;;;;5029852;28;20053;-69
2023/03/17 04:15:54;;;;;;;5.38;3.33;;;;;;;;;;5023118;28;20512;-67
2023/03/17 04:18:40;;;;;;;5.82;3.38;;;;;;;;;;5010598;28;20049;-67
2023/03/17 04:21:25;;;;;;;6.07;3.10;;;;;;;;;;5020695;28;20029;-72
2023/03/17 04:24:10;;;;;;;6.45;3.63;;;;;;;;;;5028623;28;20076;-72
2023/03/17 04:26:56;;;;;;;6.38;3.22;;;;;;;;;;5031691;28;20029;-68
2023/03/17 04:29:41;;;;;;;5.97;2.88;;;;;;;;;;5006731;28;20121;-67
2023/03/17 04:32:27;;;;;;;7.88;4.13;;;;;;;;;;5007873;28;20029;-68
2023/03/17 04:35:17;;;;;;;7.30;3.42;;;;;;;;;;5024001;28;20025;-69
2023/03/17 04:38:02;;;;;;;6.00;4.03;;;;;;;;;;5023620;28;20033;-68
2023/03/17 04:40:48;;;;;;;6.60;3.55;;;;;;;;;;5022326;28;20065;-79
2023/03/17 04:43:33;;;;;;;7.90;3.72;;;;;;;;;;5011086;28;20025;-67
2023/03/17 04:46:18;;;;;;;9.18;3.40;;;;;;;;;;5017626;28;20037;-68
2023/03/17 04:49:04;;;;;;;6.65;3.20;;;;;;;;;;5021023;28;20401;-67
2023/03/17 04:51:49;;;;;;;6.57;3.42;;;;;;;;;;5023465;28;20060;-71
2023/03/17 04:54:35;;;;;;;7.65;3.40;;;;;;;;;;5025651;28;20033;-69
2023/03/17 04:57:23;;;;;;;8.55;3.83;;;;;;;;;;5017937;28;20021;-68
2023/03/17 05:00:08;;;;;;;5.78;2.95;;;;;;;;;;5008994;28;20025;-71
2023/03/17 05:02:53;;;;;;;7.18;3.10;;;;;;;;;;5022780;28;20034;-71
2023/03/17 05:05:39;;;;;;;7.95;3.20;;;;;;;;;;4999019;28;20034;-70
2023/03/17 05:08:27;;;;;;;7.28;3.17;;;;;;;;;;5011471;28;20090;-71
2023/03/17 05:11:12;;;;;;;7.78;3.28;;;;;;;;;;5018454;28;20036;-71
2023/03/17 05:13:58;;;;;;;4.05;2.63;;;;;;;;;;5025776;28;20053;-71
2023/03/17 05:16:47;;;;;;;5.13;2.90;;;;;;;;;;5020332;28;20073;-79
2023/03/17 05:19:32;;;;;;;9.77;3.50;;;;;;;;;;5013825;28;20061;-68
2023/03/17 05:22:18;;;;;;;5.38;2.95;;;;;;;;;;5010519;28;20026;-71
2023/03/17 05:25:03;;;;;;;8.13;3.10;;;;;;;;;;5015723;28;20104;-72
2023/03/17 05:27:48;;;;;;;5.15;3.08;;;;;;;;;;5019022;28;20034;-72
2023/03/17 05:30:37;;;;;;;10.95;3.42;;;;;;;;;;5007815;28;20205;-71
2023/03/17 05:33:23;;;;;;;8.23;3.50;;;;;;;;;;5015567;28;20026;-72
2023/03/17 05:36:08;;;;;;;5.85;2.95;;;;;;;;;;5026244;28;20029;-69
2023/03/17 05:38:54;;;;;;;6.20;3.17;;;;;;;;;;5022288;28;20489;-70
2023/03/17 05:41:39;;;;;;;6.00;3.47;;;;;;;;;;5010857;28;20037;-69
2023/03/17 05:44:25;;;;;;;7.53;3.70;;;;;;;;;;5005194;28;20119;-71
2023/03/17 05:47:10;;;;;;;7.15;3.25;;;;;;;;;;5059371;28;20048;-69
2023/03/17 05:49:55;;;;;;;11.43;3.67;;;;;;;;;;5019502;28;20455;-68
2023/03/17 05:52:40;;;;;;;6.00;3.08;;;;;;;;;;5013026;28;20056;-70
2023/03/17 05:55:26;;;;;;;9.80;3.92;;;;;;;;;;5008206;28;20034;-69
2023/03/17 05:58:11;;;;;;;5.63;3.08;;;;;;;;;;5042023;28;20682;-80
2023/03/17 06:00:56;;;;;;;9.38;3.40;;;;;;;;;;5021828;28;20049;-80
2023/03/17 06:03:42;;;;;;;6.82;3.58;;;;;;;;;;5016641;28;20033;-80
2023/03/17 06:06:27;;;;;;;5.40;3.05;;;;;;;;;;5024373;28;20029;-80
2023/03/17 06:09:13;;;;;;;7.50;3.65;;;;;;;;;;5013342;28;20029;-80
2023/03/17 06:11:59;;;;;;;6.50;3.08;;;;;;;;;;5034294;28;20039;-69
2023/03/17 06:14:44;;;;;;;8.25;3.08;;;;;;;;;;5023114;28;20040;-78
2023/03/17 06:17:29;;;;;;;5.53;2.75;;;;;;;;;;5026668;28;20030;-70
2023/03/17 06:20:15;;;;;;;6.68;3.30;;;;;;;;;;5006263;28;20362;-70
2023/03/17 06:23:00;;;;;;;10.38;3.50;;;;;;;;;;5014689;28;20132;-68
2023/03/17 06:25:46;;;;;;;7.88;3.70;;;;;;;;;;5021745;28;20118;-70
2023/03/17 06:28:31;;;;;;;9.55;3.13;;;;;;;;;;5014855;28;20051;-70
2023/03/17 06:31:16;;;;;;;7.03;3.20;;;;;;;;;;5010859;28;20029;-79
2023/03/17 06:34:02;;;;;;;7.70;2.78;;;;;;;;;;5017310;28;20339;-72
2023/03/17 06:36:47;;;;;;;7.80;2.67;;;;;;;;;;5027507;28;20021;-71
2023/03/17 06:39:33;;;;;;;6.22;2.88;;;;;;;;;;5023875;28;20037;-72
2023/03/17 06:42:18;;;;;;;9.32;3.50;;;;;;;;;;5015715;28;20040;-72
2023/03/17 06:45:03;;;;;;;9.48;3.20;;;;;;;;;;5009110;28;20038;-71
2023/03/17 06:47:49;;;;;;;9.60;4.35;;;;;;;;;;5009654;28;20033;-71
2023/03/17 06:50:35;;;;;;;6.60;3.53;;;;;;;;;;5024191;28;20029;-73
2023/03/17 06:53:20;;;;;;;6.97;2.92;;;;;;;;;;5027301;28;20612;-75
2023/03/17 06:56:05;;;;;;;12.98;3.53;;;;;;;;;;5003072;28;20033;-74
2023/03/17 06:58:51;;;;;;;7.45;2.67;;;;;;;;;;5012720;28;20041;-74
2023/03/17 07:01:38;;;;;;;6.78;2.97;;;;;;;;;;5027339;28;20037;-74
2023/03/17 07:04:24;;;;;;;3.95;2.67;;;;;;;;;;5023572;28;20029;-74
2023/03/17 07:07:09;;;;;;;10.93;3.42;;;;;;;;;;5031698;28;20378;-67
2023/03/17 07:09:54;;;;;;;5.93;2.70;;;;;;;;;;5019500;28;20373;-74
2023/03/17 07:12:40;;;;;;;4.20;2.55;;;;;;;;;;5036143;28;20083;-75
2023/03/17 07:15:25;;;;;;;10.57;3.03;;;;;;;;;;5014477;28;20083;-74
2023/03/17 07:18:10;;;;;;;7.82;3.08;;;;;;;;;;5017180;28;20029;-76
2023/03/17 07:20:56;;;;;;;8.60;3.53;;;;;;;;;;5010602;28;20033;-74
2023/03/17 07:23:41;;;;;;;7.47;2.90;;;;;;;;;;5007811;28;20079;-76
2023/03/17 07:26:26;;;;;;;5.38;2.92;;;;;;;;;;5022585;28;20056;-72
2023/03/17 07:29:13;;;;;;;9.18;2.83;;;;;;;;;;5021877;28;20439;-77
2023/03/17 07:31:58;;;;;;;8.98;2.70;;;;;;;;;;5012567;28;20114;-76
2023/03/17 07:34:43;;;;;;;7.30;3.28;;;;;;;;;;4999929;28;20065;-74
2023/03/17 07:37:28;;;;;;;3.63;2.28;;;;;;;;;;5024579;28;20277;-76
2023/03/17 07:40:14;;;;;;;5.20;2.63;;;;;;;;;;5042740;28;20111;-76
2023/03/17 07:42:59;;;;;;;8.07;2.78;;;;;;;;;;5021570;28;20091;-74
2023/03/17 07:45:45;;;;;;;6.97;2.50;;;;;;;;;;5016987;28;20029;-67
2023/03/17 07:48:32;;;;;;;8.50;2.80;;;;;;;;;;5015553;28;20046;-67
2023/03/17 07:51:21;;;;;;;5.70;2.55;;;;;;;;;;5029587;28;20143;-68
2023/03/17 07:54:08;;;;;;;6.38;2.72;;;;;;;;;;5019279;28;20037;-67
2023/03/17 07:56:54;;;;;;;5.15;2.38;;;;;;;;;;5015443;28;20047;-72
2023/03/17 07:59:40;;;;;;;8.50;2.35;;;;;;;;;;5021207;28;20071;-70
2023/03/17 08:02:25;;;;;;;5.15;2.88;;;;;;;;;;5024384;28;20033;-79
2023/03/17 08:05:10;;;;;;;6.65;2.30;;;;;;;;;;5022891;28;20025;-74
2023/03/17 08:07:56;;;;;;;5.90;2.50;;;;;;;;;;5009179;28;20029;-72
2023/03/17 08:10:41;;;;;;;8.50;2.65;;;;;;;;;;5017287;28;20083;-73
2023/03/17 08:13:26;;;;;;;4.40;2.30;;;;;;;;;;5020983;28;20088;-78
2023/03/17 08:16:12;;;;;;;6.18;2.17;;;;;;;;;;5024189;28;20030;-75
2023/03/17 08:18:57;;;;;;;6.00;2.40;;;;;;;;;;5023746;28;20090;-73
2023/03/17 08:21:43;;;;;;;8.18;3.55;;;;;;;;;;5009201;28;20108;-70
2023/03/17 08:24:28;;;;;;;6.25;2.50;;;;;;;;;;5012728;28;20068;-78
2023/03/17 08:27:14;;;;;;;6.32;2.60;;;;;;;;;;5020762;28;20040;-77
2023/03/17 08:29:59;;;;;;;7.10;2.90;;;;;;;;;;5008424;28;20115;-76
2023/03/17 08:32:45;;;;;;;8.10;2.05;;;;;;;;;;5011047;28;20483;-73
2023/03/17 08:35:30;;;;;;;6.95;2.40;;;;;;;;;;5012353;28;20045;-77
2023/03/17 08:38:15;;;;;;;4.82;2.10;;;;;;;;;;5019497;28;20030;-76
2023/03/17 08:41:01;;;;;;;9.02;3.20;;;;;;;;;;5021765;28;20032;-72
2023/03/17 08:43:47;;;;;;;5.80;2.28;;;;;;;;;;5033019;28;20124;-76
2023/03/17 08:46:32;;;;;;;6.35;2.70;;;;;;;;;;5019793;28;20029;-78
2023/03/17 08:49:17;;;;;;;4.65;2.10;;;;;;;;;;5001027;28;20034;-78
2023/03/17 08:52:03;;;;;;;6.28;3.20;;;;;;;;;;5024705;28;20470;-75
2023/03/17 08:54:48;;;;;;;6.40;3.30;;;;;;;;;;5026257;28;20052;-76
2023/03/17 08:57:34;;;;;;;6.22;3.35;;;;;;;;;;5013287;28;20033;-76
2023/03/17 09:00:19;;;;;;;9.35;3.00;;;;;;;;;;5007981;28;20045;-77
2023/03/17 09:03:05;;;;;;;9.18;3.80;;;;;;;;;;5026138;28;20024;-81
2023/03/17 09:05:50;;;;;;;13.00;3.63;;;;;;;;;;5029946;28;20043;-82
2023/03/17 09:08:43;;;;;;;10.55;3.35;;;;;;;;;;5018808;28;20033;-81
2023/03/17 09:11:30;;;;;;;6.30;3.00;;;;;;;;;;5001882;28;20393;-80
2023/03/17 09:14:15;;;;;;;15.63;3.50;;;;;;;;;;5019117;28;20093;-77
2023/03/17 09:17:01;;;;;;;3.22;1.80;;;;;;;;;;5025654;28;20072;-75
2023/03/17 09:19:46;;;;;;;3.03;1.50;;;;;;;;;;5025763;28;20110;-73
2023/03/17 09:22:32;;;;;;;2.45;1.45;;;;;;;;;;4998974;28;20030;-70
2023/03/17 09:25:17;;;;;;;3.53;1.20;;;;;;;;;;5011291;28;20551;-73
2023/03/17 09:28:02;;;;;;;2.95;1.58;;;;;;;;;;5024139;28;22311;-77
2023/03/17 09:30:48;;;;;;;2.70;1.40;;;;;;;;;;5025202;28;20188;-73
2023/03/17 09:33:33;;;;;;;3.38;1.30;;;;;;;;;;5003457;28;20041;-74
2023/03/17 09:36:19;;;;;;;2.17;1.40;;;;;;;;;;5023151;28;20033;-73
2023/03/17 09:39:05;;;;;;;2.72;1.42;;;;;;;;;;5027225;28;20021;-73
2023/03/17 09:42:05;;;;;;;2.47;1.35;;;;;;;;;;5018879;28;20037;-74
2023/03/17 09:45:11;;;;;;;1.70;1.25;;;;;;;;;;5025668;28;20029;-74
2023/03/17 09:48:10;;;;;;;4.03;1.60;;;;;;;;;;5021636;28;20037;-74
2023/03/17 09:50:57;;;;;;;3.20;1.40;;;;;;;;;;5014657;28;20666;-74
2023/03/17 09:53:50;;;;;;;2.55;1.40;;;;;;;;;;5021755;28;20061;-78
2023/03/17 09:56:36;;;;;;;3.05;1.40;;;;;;;;;;5022483;28;20087;-80
2023/03/17 09:59:29;;;;;;;3.85;1.63;;;;;;;;;;5022518;28;20032;-79
2023/03/17 10:02:14;;;;;;;2.53;1.70;;;;;;;;;;5018971;28;20088;-80
2023/03/17 10:05:26;;;;;;;3.63;1.35;;;;;;;;;;5009629;28;20044;-82
2023/03/17 10:08:19;;;;;;;1.95;1.38;;;;;;;;;;5002221;28;20037;-78
2023/03/17 10:11:09;;;;;;;3.13;1.70;;;;;;;;;;5010932;28;20470;-71
2023/03/17 10:14:02;;;;;;;2.42;1.13;;;;;;;;;;5027472;28;20288;-72
2023/03/17 10:17:00;;;;;;;3.55;1.65;;;;;;;;;;5003151;28;20034;-71
2023/03/17 10:19:58;;;;;;;1.75;1.13;;;;;;;;;;5030422;28;20511;-71
2023/03/17 10:22:46;;;;;;;2.80;1.48;;;;;;;;;;5021897;28;20041;-71
2023/03/17 10:25:34;;;;;;;3.42;1.35;;;;;;;;;;5008673;28;20084;-70
2023/03/17 10:28:30;;;;;;;4.68;1.40;;;;;;;;;;5017358;28;20399;-72
2023/03/17 10:31:17;;;;;;;3.13;1.35;;;;;;;;;;5025753;28;20025;-78
2023/03/17 10:34:24;;;;;;;5.38;1.30;;;;;;;;;;5024839;28;20128;-79
2023/03/17 10:37:16;;;;;;;4.43;1.67;;;;;;;;;;5011314;28;20095;-80
2023/03/17 10:40:04;;;;;;;2.90;1.42;;;;;;;;;;5024317;28;20436;-81
2023/03/17 10:43:09;;;;;;;2.20;1.10;;;;;;;;;;5028659;28;20104;-77
2023/03/17 10:45:59;;;;;;;2.25;1.48;;;;;;;;;;5016474;28;20042;-76
2023/03/17 10:48:49;;;;;;;2.70;1.50;;;;;;;;;;5017015;28;20022;-79
2023/03/17 10:51:34;;;;;;;;;;;;;;;;;;5018824;28;20083;-77
2023/03/17 10:54:21;;;;;;;5.88;1.88;;;;;;;;;;5026915;28;19944;-71
2023/03/17 10:57:10;;;;;;;3.35;1.20;;;;;;;;;;5028618;28;20029;-70
2023/03/17 10:59:58;;;;;;;3.35;1.50;;;;;;;;;;5020324;28;20041;-72
2023/03/17 11:02:46;;;;;;;5.13;1.90;;;;;;;;;;5012892;28;20370;-69
2023/03/17 11:05:31;;;;;;;7.25;1.40;;;;;;;;;;5030346;28;20095;-73
2023/03/17 11:08:18;;;;;;;2.75;1.40;;;;;;;;;;5014555;28;20083;-79
2023/03/17 11:11:06;;;;;;;4.30;1.90;;;;;;;;;;4986212;28;20370;-77
2023/03/17 11:14:12;;;;;;;5.57;1.65;;;;;;;;;;5024020;28;20033;-74
2023/03/17 11:16:59;;;;;;;2.53;1.33;;;;;;;;;;5019497;28;20044;-74
2023/03/17 11:20:05;;;;;;;2.85;1.10;;;;;;;;;;5014269;28;20036;-73
2023/03/17 11:22:59;;;;;;;1.30;1.13;;;;;;;;;;5038399;28;20221;-73
2023/03/17 11:25:46;;;;;;;3.42;1.20;;;;;;;;;;5041611;28;20055;-75
2023/03/17 11:28:38;;;;;;;2.95;1.35;;;;;;;;;;5028341;28;20033;-74
2023/03/17 11:31:33;;;;;;;3.40;1.30;;;;;;;;;;5006045;28;20064;-73
2023/03/17 11:34:42;;;;;;;6.15;1.50;;;;;;;;;;5025310;28;20064;-74
2023/03/17 11:37:46;;;;;;;6.03;1.70;;;;;;;;;;5029904;28;20103;-75
2023/03/17 11:40:37;;;;;;;11.27;1.67;;;;;;;;;;5035014;28;20071;-72
2023/03/17 11:43:35;;;;;;;3.80;1.48;;;;;;;;;;5008376;28;20120;-72
2023/03/17 11:46:21;;;;;;;3.10;1.58;;;;;;;;;;5024060;28;20060;-73
2023/03/17 11:49:19;;;;;;;2.90;1.42;;;;;;;;;;5001208;28;20029;-71
2023/03/17 11:52:10;;;;;;;3.42;1.42;;;;;;;;;;5026205;28;20115;-73
2023/03/17 11:54:55;;;;;;;4.45;1.52;;;;;;;;;;5022932;28;20040;-71
2023/03/17 11:57:47;;;;;;;5.22;1.85;;;;;;;;;;4996845;28;20033;-71
2023/03/17 12:00:37;;;;;;;4.80;1.60;;;;;;;;;;5018194;28;20037;-72
2023/03/17 12:03:22;;;;;;;3.70;1.90;;;;;;;;;;5021781;28;20034;-73
2023/03/17 12:06:31;;;;;;;4.35;2.10;;;;;;;;;;5023790;28;20030;-75
2023/03/17 12:09:16;;;;;;;2.05;1.40;;;;;;;;;;5004872;28;20029;-77
2023/03/17 12:12:02;;;;;;;3.63;1.50;;;;;;;;;;5008356;28;20157;-77
2023/03/17 12:14:51;;;;;;;4.30;1.50;;;;;;;;;;5023200;28;20492;-76
2023/03/17 12:17:43;;;;;;;3.33;1.50;;;;;;;;;;5021101;28;20029;-76
2023/03/17 12:20:35;;;;;;;4.72;2.25;;;;;;;;;;5012019;28;20057;-69
2023/03/17 12:23:20;;;;;;;6.22;1.90;;;;;;;;;;5022506;28;20036;-77
2023/03/17 12:26:13;;;;;;;5.40;1.70;;;;;;;;;;5024590;28;20042;-76
2023/03/17 12:29:02;;;;;;;3.13;1.75;;;;;;;;;;5018079;28;20556;-80
2023/03/17 12:31:54;;;;;;;4.20;2.03;;;;;;;;;;5010083;28;20037;-81
2023/03/17 12:34:44;;;;;;;4.07;1.02;;;;;;;;;;5021103;28;20525;-78
2023/03/17 12:37:30;;;;;;;1.98;1.20;;;;;;;;;;5023965;28;20161;-79
2023/03/17 12:40:19;;;;;;;2.05;1.05;;;;;;;;;;5005324;28;20040;-75
2023/03/17 12:43:17;;;;;;;2.05;1.00;;;;;;;;;;5017262;28;20106;-71
2023/03/17 12:46:02;;;;;;;2.47;1.00;;;;;;;;;;5024429;28;20052;-74
2023/03/17 12:49:13;;;;;;;2.47;1.38;;;;;;;;;;5023741;28;20068;-75
2023/03/17 12:51:58;;;;;;;3.75;1.30;;;;;;;;;;5011176;28;20052;-75
2023/03/17 12:54:45;;;;;;;2.40;1.75;;;;;;;;;;5013381;28;20099;-74
2023/03/17 12:57:37;;;;;;;1.77;0.80;;;;;;;;;;5026945;28;20277;-70
2023/03/17 13:00:24;;;;;;;3.67;1.15;;;;;;;;;;5030471;28;20033;-70
2023/03/17 13:03:12;;;;;;;2.67;1.10;;;;;;;;;;5009689;28;20040;-69
2023/03/17 13:05:59;;;;;;;2.50;0.90;;;;;;;;;;5017744;28;20047;-70
2023/03/17 13:08:44;;;;;;;6.75;1.77;;;;;;;;;;5016488;28;20040;-70
2023/03/17 13:11:36;;;;;;;9.82;2.70;;;;;;;;;;5020537;28;20075;-70
2023/03/17 13:14:26;;;;;;;1.95;1.13;;;;;;;;;;5009711;28;20032;-71
2023/03/17 13:17:15;;;;;;;1.20;0.93;;;;;;;;;;5027338;28;20449;-76
2023/03/17 13:20:06;;;;;;;4.30;1.35;;;;;;;;;;5013691;28;20103;-77
2023/03/17 13:23:01;;;;;;;2.33;1.30;;;;;;;;;;5026674;28;20036;-77
2023/03/17 13:25:53;;;;;;;1.95;1.38;;;;;;;;;;5001204;28;20029;-78
2023/03/17 13:28:41;;;;;;;2.20;1.48;;;;;;;;;;5034380;28;20049;-77
2023/03/17 13:31:27;;;;;;;2.33;1.40;;;;;;;;;;5035768;28;20037;-76
2023/03/17 13:34:16;;;;;;;2.13;1.00;;;;;;;;;;5015045;28;20404;-79
2023/03/17 13:37:22;;;;;;;2.75;1.35;;;;;;;;;;4997581;28;20110;-73
2023/03/17 13:40:17;;;;;;;2.55;1.33;;;;;;;;;;5023377;28;20465;-74
2023/03/17 13:43:20;;;;;;;5.70;1.08;;;;;;;;;;5023556;28;20197;-72
2023/03/17 13:46:24;;;;;;;3.33;1.20;;;;;;;;;;5011987;28;20029;-72
2023/03/17 13:49:18;;;;;;;2.15;1.15;;;;;;;;;;5032610;28;20086;-71
2023/03/17 13:52:11;;;;;;;2.83;1.13;;;;;;;;;;5030634;28;20033;-77
2023/03/17 13:55:22;;;;;;;4.60;1.38;;;;;;;;;;5012997;28;20040;-75
2023/03/17 13:58:07;;;;;;;4.60;1.50;;;;;;;;;;5013306;28;20029;-75
2023/03/17 14:00:58;;;;;;;3.03;1.27;;;;;;;;;;5008440;28;20137;-75
2023/03/17 14:03:48;;;;;;;3.20;1.20;;;;;;;;;;5004847;28;20041;-74
2023/03/17 14:06:35;;;;;;;1.98;1.15;;;;;;;;;;5011858;28;20076;-71
2023/03/17 14:09:28;;;;;;;1.20;1.10;;;;;;;;;;5022925;28;20025;-75
2023/03/17 14:12:32;;;;;;;2.13;1.17;;;;;;;;;;5021522;28;20036;-76
2023/03/17 14:15:24;;;;;;;3.38;1.20;;;;;;;;;;5006344;28;20080;-74
2023/03/17 14:18:16;;;;;;;1.83;1.10;;;;;;;;;;5012566;28;20029;-75
2023/03/17 14:21:05;;;;;;;3.92;1.00;;;;;;;;;;5022948;28;20060;-74
2023/03/17 14:23:54;;;;;;;6.28;1.65;;;;;;;;;;5015619;28;20112;-74
2023/03/17 14:26:39;;;;;;;;;;;;;;;;;;5025120;28;20120;-74
2023/03/17 14:29:28;;;;;;;3.05;1.20;;;;;;;;;;5025924;28;19952;-74
2023/03/17 14:32:14;;;;;;;2.55;1.27;;;;;;;;;;5028274;28;20034;-72
2023/03/17 14:35:00;;;;;;;1.75;1.33;;;;;;;;;;5034320;28;20248;-72
2023/03/17 14:37:45;;;;;;;4.78;1.20;;;;;;;;;;5009302;28;20045;-73
2023/03/17 14:40:35;;;;;;;1.38;1.13;;;;;;;;;;5017859;28;20045;-72
2023/03/17 14:43:20;;;;;;;2.38;1.20;;;;;;;;;;5039941;28;20083;-72
2023/03/17 14:46:12;;;;;;;1.88;1.52;;;;;;;;;;5024571;28;20044;-72
2023/03/17 14:48:59;;;;;;;2.13;1.25;;;;;;;;;;5020596;28;20033;-69
2023/03/17 14:51:47;;;;;;;1.40;1.00;;;;;;;;;;5015098;28;20029;-73
2023/03/17 14:54:34;;;;;;;1.17;1.07;;;;;;;;;;5025168;28;20035;-73
2023/03/17 14:57:25;;;;;;;2.80;1.23;;;;;;;;;;5020875;28;20040;-73
2023/03/17 15:00:14;;;;;;;2.10;1.35;;;;;;;;;;5016810;28;20042;-72
2023/03/17 15:03:02;;;;;;;3.97;1.10;;;;;;;;;;5025137;28;20311;-73
2023/03/17 15:05:47;;;;;;;3.40;1.40;;;;;;;;;;5031539;28;20242;-71
2023/03/17 15:08:41;;;;;;;4.15;1.40;;;;;;;;;;5036658;28;20037;-74
2023/03/17 15:11:34;;;;;;;3.55;1.75;;;;;;;;;;5016083;28;20112;-72
2023/03/17 15:14:23;;;;;;;4.93;2.00;;;;;;;;;;5016123;28;20120;-72
2023/03/17 15:17:19;;;;;;;5.55;1.92;;;;;;;;;;5018691;28;20112;-73
2023/03/17 15:20:05;;;;;;;5.13;1.42;;;;;;;;;;5022917;28;20032;-72
2023/03/17 15:22:54;;;;;;;3.42;1.60;;;;;;;;;;5023575;28;20139;-75
2023/03/17 15:25:54;;;;;;;2.30;1.33;;;;;;;;;;5022727;28;20036;-78
2023/03/17 15:28:39;;;;;;;3.10;1.10;;;;;;;;;;5026343;28;20409;-73
2023/03/17 15:31:28;;;;;;;2.67;1.13;;;;;;;;;;5021275;28;20036;-70
2023/03/17 15:34:14;;;;;;;2.92;1.20;;;;;;;;;;5031392;28;20051;-71
2023/03/17 15:36:59;;;;;;;2.10;1.20;;;;;;;;;;5039546;28;20593;-71
2023/03/17 15:39:45;;;;;;;2.75;1.20;;;;;;;;;;5023076;28;20484;-71
2023/03/17 15:42:33;;;;;;;2.83;1.40;;;;;;;;;;5033103;28;20104;-71
2023/03/17 15:45:18;;;;;;;3.35;1.33;;;;;;;;;;5026640;28;20037;-70
2023/03/17 15:48:03;;;;;;;2.75;1.30;;;;;;;;;;5027142;28;20083;-74
2023/03/17 15:50:50;;;;;;;4.45;1.60;;;;;;;;;;5016383;28;20499;-74
2023/03/17 15:53:35;;;;;;;5.10;1.60;;;;;;;;;;5025829;28;20107;-73
2023/03/17 15:56:20;;;;;;;7.35;2.05;;;;;;;;;;5021844;28;20041;-73
2023/03/17 15:59:05;;;;;;;10.65;2.50;;;;;;;;;;5017265;28;20591;-73
2023/03/17 16:01:51;;;;;;;7.28;2.22;;;;;;;;;;5018297;28;20205;-74
2023/03/17 16:04:36;;;;;;;4.88;2.42;;;;;;;;;;5020573;28;20484;-71
2023/03/17 16:07:22;;;;;;;7.22;1.75;;;;;;;;;;4994004;28;20041;-71
2023/03/17 16:10:21;;;;;;;7.22;2.08;;;;;;;;;;5027582;28;20044;-71
2023/03/17 16:13:06;;;;;;;3.63;1.53;;;;;;;;;;5036910;28;20455;-73
2023/03/17 16:15:53;;;;;;;6.18;1.90;;;;;;;;;;5027353;28;20268;-70
2023/03/17 16:18:39;;;;;;;4.80;1.70;;;;;;;;;;5007582;28;20447;-71
2023/03/17 16:21:25;;;;;;;4.65;1.98;;;;;;;;;;5016302;28;20042;-72
2023/03/17 16:24:21;;;;;;;7.93;1.90;;;;;;;;;;5015655;28;20021;-75
2023/03/17 16:27:13;;;;;;;4.50;1.85;;;;;;;;;;5022968;28;20108;-76
2023/03/17 16:29:58;;;;;;;3.53;1.40;;;;;;;;;;5016984;28;20099;-74
2023/03/17 16:32:43;;;;;;;5.28;2.10;;;;;;;;;;5024959;28;20044;-76
2023/03/17 16:35:28;;;;;;;6.05;2.20;;;;;;;;;;5030427;28;20151;-76
2023/03/17 16:38:18;;;;;;;11.70;3.92;;;;;;;;;;5018713;28;20404;-78
2023/03/17 16:41:07;;;;;;;11.48;2.65;;;;;;;;;;5020687;28;20040;-80
2023/03/17 16:43:54;;;;;;;;;;;;;;;;;;5022051;28;20037;-78
2023/03/17 16:46:43;;;;;;;7.28;2.58;;;;;;;;;;5029298;28;19921;-77